CPQ6 weather

Lake Rosseau/Cameron Bay Seaplane Base
Rosseau, Ontario, Canada

Public forecast

Using degrees Celsius for public forecast. Weather courtesy of forecast.io.

Closest aviation weather report (METAR) to Lake Rosseau/Cameron Bay Seaplane Base

Closest report is Muskoka Airport, 22.1 nm (41.0 km) SE. Retrieved 2019/10/23 20:00 UTC (38 minutes ago):

CYQA 232000Z AUTO 22009G18KT 9SM SCT037 BKN046 OVC055 09/02 A2985 RMK SLP115

Closest aviation forecast (TAF) to Lake Rosseau/Cameron Bay Seaplane Base

Closest forecast is Muskoka Airport, 22.1 nm (41.0 km) SE. Retrieved 2019/10/23 20:00 UTC (38 minutes ago):

TAF CYQA 231942Z 2320/2402 24012G22KT P6SM FEW020 BKN040 TEMPO 2320/2402 5SM -SHRA BR BKN020 OVC040 BECMG 2322/2324 24010KT RMK FCST BASED ON AUTO OBS NXT FCST WILL BE ISSUED AT 241145Z